Aktualne dane pomiarowe

Uwaga, wersja testowa! Automatyczne pobieranie danych za pomocą narzędzi lub skryptów to umożliwiających jest zabronione.

Dane meteo z obszaru Polski uzyskane na podstawie depesz SYNOP pobieranych co godzinę z NWS. Najedź myszką na symbol przedstawiony w tabeli, aby uzyskać informacje co do jego znaczenia. Prosimy pamiętać, że to testowa wersja strony, która jeszcze nie jest ukończona. Stworzono również jest krótki FAQ dotyczący korzystania z tej podstrony Anomalie temperatury w chwili obecnej odniesione są do okresu referencyjnego 1951-2016. Okres ten będzie później zmieniony na 1981-2010. Kliknij ikonę aby pobrać plik CSV. Kliknij ikonę aby wygenerować mapę synoptyczną dla danego terminu.

Wybierz Datę:    

        

Koło (12345)

Dane terminowe dla wybranej stacji. Kliknij datę, aby otrzymać dane z tego terminu dla wszystkich stacji.

TemperaturaZachmurzenieWiatrCiśnienieOpadyPogoda
 Data t td wb tx tn tg rh  Nt Nl Cl Cm Ch ws wd g1 g2 wx mslp ppp ch 24h 12h t ww ww w1 w2  
2019-07-07 23:00:00 12.6 10.7 11.3--- 8835.0--3wx--31010.4 996.3 0.9---wx-----
2019-07-07 22:00:00 12.9 9.9 10.9--- 8228.0--3wx--31010.2 996.1 1.0---wx-----
2019-07-07 21:00:00 14.8 8.3 10.9--- 6535.0--4wx--41009.7 995.7 1.2---------
2019-07-07 20:00:00 15.1 8.1 10.9--- 6335.0--5wx--51009.4 995.4 1.6---------
2019-07-07 19:00:00 15.4 7.9 11.0--- 6135.0--5wx---1009.1 995.1 1.1---------
2019-07-07 18:00:00 16.4 7.6 11.3 20.1 14.0- 5635.0--6wx---1008.4 994.5 0.7---------
2019-07-07 17:00:00 17.0 7.3 11.5--- 5335.0--6wx---1007.7 993.8 -0.3---------
2019-07-07 16:00:00 17.9 7.3 11.9--- 5035.0--6wx---1007.8 994.0 0.1---------
2019-07-07 15:00:00 18.3 6.8 11.9--- 4735.0--6wx-1261007.6 993.8 0.3---------
2019-07-07 14:00:00 18.3 6.5 11.7--- 4635.0--6wx-1161007.9 994.1 0.8---------
2019-07-07 13:00:00 18.3 6.2 11.6--- 4535.0--6wx---1007.7 993.9 0.9---------
2019-07-07 12:00:00 19.3 6.7 12.3--- 4435.0--7wx121371007.3 993.5 0.7- 0.06------
2019-07-07 11:00:00 18.8 7.6 12.4--- 4835.0--6wx---1007.1 993.3 0.8---------
2019-07-07 10:00:00 17.3 7.1 11.5--- 5135.0--7wx-1171006.8 993.0 0.6---------
2019-07-07 09:00:00 16.7 7.9 11.6--- 5635.0--7wx-1071006.7 992.8 0.7---------
2019-07-07 08:00:00 16.2 8.4 11.6--- 6035.0--6wx-1061006.4 992.5 0.5---------
2019-07-07 07:00:00 14.8 8.9 11.2--- 6835.0--7wx--71006.4 992.4 0.7---------
2019-07-07 06:00:00 14.0 11.5 12.3 18.4 13.2 13 8535.0--4wx--41006.1 992.1 0.7 2.7 3.012----- 0.1
2019-07-07 05:00:00 13.8 12.5 12.9--- 9230.0--4wx--41006.0 992.0 0.4---------
2019-07-07 04:00:00 13.6 12.2 12.6--- 9130.0--5wx--51005.7 991.7 0.1---wx-----
2019-07-07 03:00:00 14.9 13.8 14.1--- 9318.0--4wx--41005.3 991.4 -0.6---wx-----
2019-07-07 02:00:00 15.3 14.2 14.5--- 9314.0--4wx--41005.5 991.6 -0.7---wx-----
2019-07-07 01:00:00 15.6 14.1 14.5--- 9125.0--3wx---1005.5 991.6 -1.2---wx-----
2019-07-07 00:00:00 15.6 14.0 14.5--- 9023.0--2wx--21005.9 992.0 -0.2- 0.76wx-----
2019-07-06 23:00:00 16.0 14.2 14.7--- 8935.0--2wx--21006.2 992.3 -0.2---wx-----
2019-07-06 22:00:00 16.7 14.5 15.2--- 8717.0--3wx--31006.7 992.8 0.4---wx-----
2019-07-06 21:00:00 17.0 15.2 15.7--- 8919.0--1wx--11006.0 992.2 -0.3---------
2019-07-06 20:00:00 17.1 14.9 15.6--- 8718.0--1wx--11006.3 992.5 0.0---wx-----
2019-07-06 19:00:00 17.4 14.7 15.5--- 8428.0--1wx--11006.2 992.4 -0.3---wx-----
2019-07-06 18:00:00 18.5 14.2 15.6 20.8 16.1- 7635.0--1wx--11006.3 992.5 -0.7- 0.112wx-----
2019-07-06 17:00:00 19.6 12.4 15.1--- 6335.0--1wx--11006.2 992.5 -1.5---------
2019-07-06 16:00:00 19.9 12.2 15.1--- 6135.0--1wx--11006.4 992.7 -1.9---------
2019-07-06 15:00:00 19.6 12.8 15.3--- 6535.0--1wx--11006.9 993.2 -1.7---wx-----
2019-07-06 14:00:00 20.3 12.0 15.1--- 5935.0--3wx--31007.7 994.0 -1.1---wx-----
2019-07-06 13:00:00 20.3 11.5 14.9--- 5735.0--4wx--41008.3 994.6 -1.0---------
2019-07-06 12:00:00 20.3 11.0 14.6--- 5535.0--5wx--51008.6 994.9 -1.1- 0.06------
2019-07-06 11:00:00 20.3 11.2 14.7--- 5635.0--4wx--41008.8 995.1 -0.9---------
2019-07-06 10:00:00 19.6 10.6 14.1--- 5635.0--5wx--51009.4 995.6 -1.1---------
2019-07-06 09:00:00 18.8 11.6 14.3--- 6335.0--5wx--51009.8 996.0 -0.7---------
2019-07-06 08:00:00 18.3 11.8 14.2--- 6635.0--4wx--41009.8 996.0 -1.0---------
2019-07-06 07:00:00 17.1 11.8 13.7--- 7135.0--4wx--41010.6 996.7 -0.5---------
2019-07-06 06:00:00 16.2 12.6 13.8 17.9 13.4 8 7935.0--2wx--21010.6 996.7 -0.6 0.5 0.012----- 2.2
2019-07-06 05:00:00 15.2 12.3 13.2--- 8335.0--2wx--21011.0 997.0 -0.8---------
2019-07-06 04:00:00 14.4 12.1 12.8--- 8635.0--2wx--21011.2 997.2 -0.5---------
2019-07-06 03:00:00 13.9 11.6 12.3--- 8635.0--1wx---1011.4 997.3 -0.6---------
2019-07-06 02:00:00 13.7 11.2 12.0--- 8535.0--2wx--21011.9 997.8 -0.2---------
2019-07-06 01:00:00 13.7 11.2 12.0--- 8535.0--2wx--21011.8 997.7 -0.2---------
2019-07-06 00:00:00 14.4 11.4 12.4--- 8235.0--2wx--21012.0 997.9 0.0- 0.06------
4.0 ms

 

Print Friendly, PDF & Email